sensor_id;sensor_type;location;lat;lon;timestamp;P1;durP1;ratioP1;P2;durP2;ratioP2
51527;SDS011;37612;51.768;21.590;2023-08-24T00:03:01;6.90;;;3.20;;
51527;SDS011;37612;51.768;21.590;2023-08-24T00:07:04;7.60;;;3.40;;
51527;SDS011;37612;51.768;21.590;2023-08-24T00:11:06;5.20;;;3.50;;
51527;SDS011;37612;51.768;21.590;2023-08-24T00:15:09;8.90;;;4.20;;
51527;SDS011;37612;51.768;21.590;2023-08-24T00:19:12;6.30;;;3.80;;
51527;SDS011;37612;51.768;21.590;2023-08-24T00:23:14;6.60;;;3.90;;
51527;SDS011;37612;51.768;21.590;2023-08-24T00:27:16;7.70;;;4.00;;
51527;SDS011;37612;51.768;21.590;2023-08-24T00:31:17;5.20;;;3.50;;
51527;SDS011;37612;51.768;21.590;2023-08-24T00:35:19;6.20;;;4.20;;
51527;SDS011;37612;51.768;21.590;2023-08-24T00:39:22;6.50;;;4.20;;
51527;SDS011;37612;51.768;21.590;2023-08-24T00:43:25;8.30;;;4.20;;
51527;SDS011;37612;51.768;21.590;2023-08-24T00:47:27;5.60;;;3.60;;
51527;SDS011;37612;51.768;21.590;2023-08-24T00:51:29;7.40;;;3.50;;
51527;SDS011;37612;51.768;21.590;2023-08-24T00:55:31;5.50;;;3.10;;
51527;SDS011;37612;51.768;21.590;2023-08-24T00:59:33;6.60;;;3.70;;
51527;SDS011;37612;51.768;21.590;2023-08-24T01:03:36;6.50;;;4.80;;
51527;SDS011;37612;51.768;21.590;2023-08-24T01:16:16;5.70;;;3.20;;
51527;SDS011;37612;51.768;21.590;2023-08-24T01:20:22;4.90;;;3.30;;
51527;SDS011;37612;51.768;21.590;2023-08-24T01:28:38;5.20;;;4.10;;
51527;SDS011;37612;51.768;21.590;2023-08-24T01:32:41;4.70;;;3.40;;
51527;SDS011;37612;51.768;21.590;2023-08-24T01:36:44;5.20;;;3.40;;
51527;SDS011;37612;51.768;21.590;2023-08-24T01:45:14;8.10;;;3.70;;
51527;SDS011;37612;51.768;21.590;2023-08-24T01:49:20;5.40;;;3.60;;
51527;SDS011;37612;51.768;21.590;2023-08-24T01:53:24;5.90;;;3.40;;
51527;SDS011;37612;51.768;21.590;2023-08-24T01:57:28;6.90;;;3.50;;
51527;SDS011;37612;51.768;21.590;2023-08-24T02:01:29;4.00;;;3.30;;
51527;SDS011;37612;51.768;21.590;2023-08-24T02:05:31;5.30;;;3.20;;
51527;SDS011;37612;51.768;21.590;2023-08-24T02:09:33;6.30;;;3.40;;
51527;SDS011;37612;51.768;21.590;2023-08-24T02:13:35;10.80;;;3.70;;
51527;SDS011;37612;51.768;21.590;2023-08-24T02:17:37;5.50;;;4.10;;
51527;SDS011;37612;51.768;21.590;2023-08-24T02:21:39;5.70;;;4.60;;
51527;SDS011;37612;51.768;21.590;2023-08-24T02:25:44;11.50;;;5.30;;
51527;SDS011;37612;51.768;21.590;2023-08-24T02:29:46;9.50;;;5.00;;
51527;SDS011;37612;51.768;21.590;2023-08-24T02:33:47;8.60;;;5.40;;
51527;SDS011;37612;51.768;21.590;2023-08-24T02:37:50;7.90;;;5.50;;
51527;SDS011;37612;51.768;21.590;2023-08-24T02:41:52;8.00;;;5.90;;
51527;SDS011;37612;51.768;21.590;2023-08-24T02:45:58;6.30;;;5.00;;
51527;SDS011;37612;51.768;21.590;2023-08-24T02:50:02;6.60;;;4.80;;
51527;SDS011;37612;51.768;21.590;2023-08-24T02:54:06;8.30;;;5.20;;
51527;SDS011;37612;51.768;21.590;2023-08-24T02:58:08;7.80;;;4.50;;
51527;SDS011;37612;51.768;21.590;2023-08-24T03:02:09;7.70;;;4.90;;
51527;SDS011;37612;51.768;21.590;2023-08-24T03:06:11;6.40;;;5.00;;
51527;SDS011;37612;51.768;21.590;2023-08-24T03:10:13;4.60;;;4.00;;
51527;SDS011;37612;51.768;21.590;2023-08-24T03:14:15;6.70;;;4.30;;
51527;SDS011;37612;51.768;21.590;2023-08-24T03:18:17;7.00;;;5.10;;
51527;SDS011;37612;51.768;21.590;2023-08-24T03:22:20;9.50;;;5.40;;
51527;SDS011;37612;51.768;21.590;2023-08-24T03:26:21;9.90;;;5.20;;
51527;SDS011;37612;51.768;21.590;2023-08-24T03:30:28;7.20;;;4.70;;
51527;SDS011;37612;51.768;21.590;2023-08-24T03:34:30;10.40;;;4.80;;
51527;SDS011;37612;51.768;21.590;2023-08-24T03:38:32;8.60;;;5.10;;
51527;SDS011;37612;51.768;21.590;2023-08-24T03:42:34;9.70;;;5.30;;
51527;SDS011;37612;51.768;21.590;2023-08-24T03:46:36;5.20;;;3.90;;
51527;SDS011;37612;51.768;21.590;2023-08-24T03:50:38;5.20;;;4.10;;
51527;SDS011;37612;51.768;21.590;2023-08-24T03:54:40;6.30;;;4.20;;
51527;SDS011;37612;51.768;21.590;2023-08-24T03:58:42;10.10;;;5.50;;
51527;SDS011;37612;51.768;21.590;2023-08-24T04:02:44;8.90;;;5.00;;
51527;SDS011;37612;51.768;21.590;2023-08-24T04:06:47;8.60;;;5.80;;
51527;SDS011;37612;51.768;21.590;2023-08-24T04:10:50;6.40;;;5.00;;
51527;SDS011;37612;51.768;21.590;2023-08-24T04:14:53;8.40;;;6.60;;
51527;SDS011;37612;51.768;21.590;2023-08-24T04:18:56;6.60;;;5.00;;
51527;SDS011;37612;51.768;21.590;2023-08-24T04:22:58;9.20;;;5.90;;
51527;SDS011;37612;51.768;21.590;2023-08-24T04:26:59;11.10;;;5.60;;
51527;SDS011;37612;51.768;21.590;2023-08-24T04:31:01;11.10;;;5.40;;
51527;SDS011;37612;51.768;21.590;2023-08-24T04:35:03;9.00;;;5.20;;
51527;SDS011;37612;51.768;21.590;2023-08-24T04:39:05;7.30;;;5.50;;
51527;SDS011;37612;51.768;21.590;2023-08-24T04:43:07;8.90;;;5.90;;
51527;SDS011;37612;51.768;21.590;2023-08-24T04:47:10;9.90;;;5.70;;
51527;SDS011;37612;51.768;21.590;2023-08-24T04:51:12;8.90;;;5.60;;
51527;SDS011;37612;51.768;21.590;2023-08-24T04:55:14;9.50;;;5.70;;
51527;SDS011;37612;51.768;21.590;2023-08-24T04:59:15;8.70;;;5.50;;
51527;SDS011;37612;51.768;21.590;2023-08-24T05:03:17;9.90;;;5.50;;
51527;SDS011;37612;51.768;21.590;2023-08-24T05:07:20;8.50;;;5.80;;
51527;SDS011;37612;51.768;21.590;2023-08-24T05:11:27;14.00;;;5.20;;
51527;SDS011;37612;51.768;21.590;2023-08-24T05:15:30;7.40;;;5.20;;
51527;SDS011;37612;51.768;21.590;2023-08-24T05:23:35;9.20;;;6.00;;
51527;SDS011;37612;51.768;21.590;2023-08-24T05:27:37;8.10;;;5.40;;
51527;SDS011;37612;51.768;21.590;2023-08-24T05:31:39;6.80;;;4.80;;
51527;SDS011;37612;51.768;21.590;2023-08-24T05:35:41;7.80;;;4.70;;
51527;SDS011;37612;51.768;21.590;2023-08-24T05:43:45;9.50;;;4.60;;
51527;SDS011;37612;51.768;21.590;2023-08-24T05:47:47;7.80;;;4.50;;
51527;SDS011;37612;51.768;21.590;2023-08-24T05:51:52;5.80;;;3.60;;
51527;SDS011;37612;51.768;21.590;2023-08-24T05:55:57;7.80;;;4.10;;
51527;SDS011;37612;51.768;21.590;2023-08-24T05:59:59;10.40;;;4.30;;
51527;SDS011;37612;51.768;21.590;2023-08-24T06:04:01;8.50;;;3.80;;
51527;SDS011;37612;51.768;21.590;2023-08-24T06:08:04;8.00;;;3.40;;
51527;SDS011;37612;51.768;21.590;2023-08-24T06:12:09;6.10;;;3.80;;
51527;SDS011;37612;51.768;21.590;2023-08-24T06:16:11;9.40;;;3.90;;
51527;SDS011;37612;51.768;21.590;2023-08-24T06:20:17;6.80;;;3.90;;
51527;SDS011;37612;51.768;21.590;2023-08-24T06:24:19;6.70;;;3.30;;
51527;SDS011;37612;51.768;21.590;2023-08-24T06:28:23;8.70;;;3.50;;
51527;SDS011;37612;51.768;21.590;2023-08-24T06:32:27;5.40;;;3.30;;
51527;SDS011;37612;51.768;21.590;2023-08-24T06:36:29;4.50;;;2.90;;
51527;SDS011;37612;51.768;21.590;2023-08-24T06:40:31;7.90;;;3.60;;
51527;SDS011;37612;51.768;21.590;2023-08-24T06:44:33;7.90;;;3.50;;
51527;SDS011;37612;51.768;21.590;2023-08-24T06:48:36;4.90;;;2.80;;
51527;SDS011;37612;51.768;21.590;2023-08-24T06:52:48;12.00;;;3.10;;
51527;SDS011;37612;51.768;21.590;2023-08-24T06:56:50;7.50;;;2.80;;
51527;SDS011;37612;51.768;21.590;2023-08-24T07:00:52;6.80;;;3.00;;
51527;SDS011;37612;51.768;21.590;2023-08-24T07:05:10;4.60;;;2.70;;
51527;SDS011;37612;51.768;21.590;2023-08-24T07:09:22;8.00;;;2.90;;
51527;SDS011;37612;51.768;21.590;2023-08-24T07:13:26;3.60;;;2.50;;
51527;SDS011;37612;51.768;21.590;2023-08-24T07:17:29;7.30;;;2.60;;
51527;SDS011;37612;51.768;21.590;2023-08-24T07:21:30;6.70;;;2.90;;
51527;SDS011;37612;51.768;21.590;2023-08-24T07:25:32;4.00;;;2.40;;
51527;SDS011;37612;51.768;21.590;2023-08-24T07:29:35;6.70;;;2.60;;
51527;SDS011;37612;51.768;21.590;2023-08-24T07:33:37;7.40;;;2.50;;
51527;SDS011;37612;51.768;21.590;2023-08-24T07:37:41;4.70;;;2.50;;
51527;SDS011;37612;51.768;21.590;2023-08-24T07:41:44;4.30;;;2.00;;
51527;SDS011;37612;51.768;21.590;2023-08-24T07:45:46;5.90;;;2.20;;
51527;SDS011;37612;51.768;21.590;2023-08-24T07:53:50;4.10;;;2.20;;
51527;SDS011;37612;51.768;21.590;2023-08-24T07:58:02;4.00;;;2.20;;
51527;SDS011;37612;51.768;21.590;2023-08-24T08:02:05;3.50;;;1.70;;
51527;SDS011;37612;51.768;21.590;2023-08-24T08:06:07;4.90;;;2.60;;
51527;SDS011;37612;51.768;21.590;2023-08-24T08:10:09;3.30;;;2.20;;
51527;SDS011;37612;51.768;21.590;2023-08-24T08:14:11;3.00;;;1.80;;
51527;SDS011;37612;51.768;21.590;2023-08-24T08:18:15;4.50;;;1.80;;
51527;SDS011;37612;51.768;21.590;2023-08-24T08:22:17;3.00;;;1.80;;
51527;SDS011;37612;51.768;21.590;2023-08-24T08:26:27;3.40;;;1.70;;
51527;SDS011;37612;51.768;21.590;2023-08-24T08:30:38;4.20;;;1.80;;
51527;SDS011;37612;51.768;21.590;2023-08-24T08:34:43;4.90;;;1.90;;
51527;SDS011;37612;51.768;21.590;2023-08-24T08:38:45;5.50;;;1.60;;
51527;SDS011;37612;51.768;21.590;2023-08-24T08:42:48;5.60;;;1.60;;
51527;SDS011;37612;51.768;21.590;2023-08-24T08:46:50;3.40;;;1.80;;
51527;SDS011;37612;51.768;21.590;2023-08-24T08:50:52;6.00;;;2.10;;
51527;SDS011;37612;51.768;21.590;2023-08-24T08:54:57;2.40;;;1.80;;
51527;SDS011;37612;51.768;21.590;2023-08-24T08:59:01;7.10;;;1.80;;
51527;SDS011;37612;51.768;21.590;2023-08-24T09:03:22;3.20;;;1.40;;
51527;SDS011;37612;51.768;21.590;2023-08-24T09:07:36;3.70;;;1.40;;
51527;SDS011;37612;51.768;21.590;2023-08-24T09:11:41;2.50;;;1.70;;
51527;SDS011;37612;51.768;21.590;2023-08-24T09:16:02;3.60;;;1.60;;
51527;SDS011;37612;51.768;21.590;2023-08-24T09:20:07;8.30;;;1.60;;
51527;SDS011;37612;51.768;21.590;2023-08-24T09:24:13;4.70;;;1.90;;
51527;SDS011;37612;51.768;21.590;2023-08-24T09:28:22;3.70;;;1.80;;
51527;SDS011;37612;51.768;21.590;2023-08-24T09:32:28;6.10;;;1.80;;
51527;SDS011;37612;51.768;21.590;2023-08-24T09:36:34;3.40;;;1.70;;
51527;SDS011;37612;51.768;21.590;2023-08-24T09:40:37;3.70;;;1.60;;
51527;SDS011;37612;51.768;21.590;2023-08-24T09:44:44;2.60;;;1.50;;
51527;SDS011;37612;51.768;21.590;2023-08-24T09:48:52;4.20;;;1.50;;
51527;SDS011;37612;51.768;21.590;2023-08-24T09:52:56;6.40;;;1.70;;
51527;SDS011;37612;51.768;21.590;2023-08-24T09:57:14;3.60;;;1.40;;
51527;SDS011;37612;51.768;21.590;2023-08-24T10:01:17;2.80;;;1.60;;
51527;SDS011;37612;51.768;21.590;2023-08-24T10:05:25;4.50;;;1.60;;
51527;SDS011;37612;51.768;21.590;2023-08-24T10:09:38;1.50;;;1.30;;
51527;SDS011;37612;51.768;21.590;2023-08-24T10:13:50;3.90;;;2.00;;
51527;SDS011;37612;51.768;21.590;2023-08-24T10:17:58;3.10;;;1.60;;
51527;SDS011;37612;51.768;21.590;2023-08-24T10:22:02;2.70;;;1.50;;
51527;SDS011;37612;51.768;21.590;2023-08-24T10:26:08;4.70;;;1.90;;
51527;SDS011;37612;51.768;21.590;2023-08-24T10:30:14;3.50;;;1.60;;
51527;SDS011;37612;51.768;21.590;2023-08-24T10:34:17;3.20;;;1.60;;
51527;SDS011;37612;51.768;21.590;2023-08-24T10:38:26;3.80;;;1.70;;
51527;SDS011;37612;51.768;21.590;2023-08-24T10:42:42;2.50;;;1.70;;
51527;SDS011;37612;51.768;21.590;2023-08-24T10:47:04;2.90;;;1.50;;
51527;SDS011;37612;51.768;21.590;2023-08-24T10:55:22;5.60;;;1.80;;
51527;SDS011;37612;51.768;21.590;2023-08-24T10:59:25;3.40;;;1.60;;
51527;SDS011;37612;51.768;21.590;2023-08-24T11:03:36;3.80;;;1.70;;
51527;SDS011;37612;51.768;21.590;2023-08-24T11:07:47;5.20;;;2.00;;
51527;SDS011;37612;51.768;21.590;2023-08-24T11:15:59;4.70;;;1.70;;
51527;SDS011;37612;51.768;21.590;2023-08-24T11:20:06;5.70;;;1.60;;
51527;SDS011;37612;51.768;21.590;2023-08-24T11:24:09;2.90;;;1.40;;
51527;SDS011;37612;51.768;21.590;2023-08-24T11:28:17;4.30;;;1.70;;
51527;SDS011;37612;51.768;21.590;2023-08-24T11:32:20;2.50;;;1.50;;
51527;SDS011;37612;51.768;21.590;2023-08-24T11:36:22;2.10;;;1.50;;
51527;SDS011;37612;51.768;21.590;2023-08-24T11:40:25;2.50;;;1.40;;
51527;SDS011;37612;51.768;21.590;2023-08-24T11:44:30;3.70;;;1.80;;
51527;SDS011;37612;51.768;21.590;2023-08-24T11:48:50;4.30;;;1.70;;
51527;SDS011;37612;51.768;21.590;2023-08-24T11:52:52;2.20;;;1.70;;
51527;SDS011;37612;51.768;21.590;2023-08-24T11:56:54;3.20;;;1.70;;
51527;SDS011;37612;51.768;21.590;2023-08-24T12:00:57;2.20;;;1.50;;
51527;SDS011;37612;51.768;21.590;2023-08-24T12:04:59;1.60;;;1.40;;
51527;SDS011;37612;51.768;21.590;2023-08-24T12:09:04;3.00;;;1.70;;
51527;SDS011;37612;51.768;21.590;2023-08-24T12:13:06;3.80;;;2.00;;
51527;SDS011;37612;51.768;21.590;2023-08-24T12:17:11;5.00;;;1.50;;
51527;SDS011;37612;51.768;21.590;2023-08-24T12:21:14;3.40;;;1.50;;
51527;SDS011;37612;51.768;21.590;2023-08-24T12:25:15;4.20;;;1.60;;
51527;SDS011;37612;51.768;21.590;2023-08-24T12:29:18;6.60;;;1.70;;
51527;SDS011;37612;51.768;21.590;2023-08-24T12:33:23;2.50;;;1.50;;
51527;SDS011;37612;51.768;21.590;2023-08-24T12:37:29;4.00;;;1.70;;
51527;SDS011;37612;51.768;21.590;2023-08-24T12:41:31;4.60;;;1.70;;
51527;SDS011;37612;51.768;21.590;2023-08-24T12:45:33;3.60;;;1.50;;
51527;SDS011;37612;51.768;21.590;2023-08-24T12:49:35;2.40;;;1.60;;
51527;SDS011;37612;51.768;21.590;2023-08-24T12:53:37;3.90;;;1.70;;
51527;SDS011;37612;51.768;21.590;2023-08-24T12:57:38;3.70;;;1.50;;
51527;SDS011;37612;51.768;21.590;2023-08-24T13:01:40;2.90;;;1.60;;
51527;SDS011;37612;51.768;21.590;2023-08-24T13:05:43;3.50;;;1.50;;
51527;SDS011;37612;51.768;21.590;2023-08-24T13:09:45;10.80;;;1.50;;
51527;SDS011;37612;51.768;21.590;2023-08-24T13:13:47;3.00;;;1.40;;
51527;SDS011;37612;51.768;21.590;2023-08-24T13:17:49;2.10;;;1.40;;
51527;SDS011;37612;51.768;21.590;2023-08-24T13:21:50;1.90;;;1.50;;
51527;SDS011;37612;51.768;21.590;2023-08-24T13:25:52;4.00;;;1.80;;
51527;SDS011;37612;51.768;21.590;2023-08-24T13:29:55;2.20;;;1.40;;
51527;SDS011;37612;51.768;21.590;2023-08-24T13:34:04;2.20;;;1.30;;
51527;SDS011;37612;51.768;21.590;2023-08-24T13:38:09;4.30;;;1.40;;
51527;SDS011;37612;51.768;21.590;2023-08-24T13:42:11;2.50;;;1.30;;
51527;SDS011;37612;51.768;21.590;2023-08-24T13:46:20;6.20;;;1.50;;
51527;SDS011;37612;51.768;21.590;2023-08-24T13:50:22;2.20;;;1.50;;
51527;SDS011;37612;51.768;21.590;2023-08-24T13:54:24;2.40;;;1.50;;
51527;SDS011;37612;51.768;21.590;2023-08-24T13:58:27;1.90;;;1.40;;
51527;SDS011;37612;51.768;21.590;2023-08-24T14:02:29;1.70;;;1.20;;
51527;SDS011;37612;51.768;21.590;2023-08-24T14:06:31;3.00;;;1.50;;
51527;SDS011;37612;51.768;21.590;2023-08-24T14:10:35;2.20;;;1.50;;
51527;SDS011;37612;51.768;21.590;2023-08-24T14:14:37;1.90;;;1.40;;
51527;SDS011;37612;51.768;21.590;2023-08-24T14:18:39;3.30;;;1.60;;
51527;SDS011;37612;51.768;21.590;2023-08-24T14:22:41;3.60;;;1.50;;
51527;SDS011;37612;51.768;21.590;2023-08-24T14:26:44;3.20;;;1.30;;
51527;SDS011;37612;51.768;21.590;2023-08-24T14:30:49;2.10;;;1.30;;
51527;SDS011;37612;51.768;21.590;2023-08-24T14:34:52;2.70;;;1.60;;
51527;SDS011;37612;51.768;21.590;2023-08-24T14:38:54;3.70;;;1.70;;
51527;SDS011;37612;51.768;21.590;2023-08-24T14:42:57;2.20;;;1.70;;
51527;SDS011;37612;51.768;21.590;2023-08-24T14:46:58;4.00;;;1.60;;
51527;SDS011;37612;51.768;21.590;2023-08-24T14:51:01;2.90;;;1.50;;
51527;SDS011;37612;51.768;21.590;2023-08-24T14:55:03;3.90;;;1.80;;
51527;SDS011;37612;51.768;21.590;2023-08-24T14:59:06;3.10;;;1.50;;
51527;SDS011;37612;51.768;21.590;2023-08-24T15:03:08;2.70;;;1.80;;
51527;SDS011;37612;51.768;21.590;2023-08-24T15:07:12;5.20;;;1.70;;
51527;SDS011;37612;51.768;21.590;2023-08-24T15:11:18;4.40;;;1.60;;
51527;SDS011;37612;51.768;21.590;2023-08-24T15:15:19;2.80;;;1.50;;
51527;SDS011;37612;51.768;21.590;2023-08-24T15:19:23;1.90;;;1.40;;
51527;SDS011;37612;51.768;21.590;2023-08-24T15:23:26;2.50;;;1.40;;
51527;SDS011;37612;51.768;21.590;2023-08-24T15:27:30;3.50;;;1.30;;
51527;SDS011;37612;51.768;21.590;2023-08-24T15:31:33;1.70;;;1.40;;
51527;SDS011;37612;51.768;21.590;2023-08-24T15:35:39;3.90;;;1.60;;
51527;SDS011;37612;51.768;21.590;2023-08-24T15:39:41;4.20;;;1.40;;
51527;SDS011;37612;51.768;21.590;2023-08-24T15:43:44;2.40;;;1.40;;
51527;SDS011;37612;51.768;21.590;2023-08-24T15:47:48;4.90;;;1.30;;
51527;SDS011;37612;51.768;21.590;2023-08-24T15:51:50;1.70;;;1.30;;
51527;SDS011;37612;51.768;21.590;2023-08-24T15:55:56;3.70;;;1.60;;
51527;SDS011;37612;51.768;21.590;2023-08-24T16:00:00;4.70;;;1.40;;
51527;SDS011;37612;51.768;21.590;2023-08-24T16:04:04;2.80;;;1.60;;
51527;SDS011;37612;51.768;21.590;2023-08-24T16:08:07;3.50;;;1.50;;
51527;SDS011;37612;51.768;21.590;2023-08-24T16:12:09;2.70;;;1.90;;
51527;SDS011;37612;51.768;21.590;2023-08-24T16:16:11;2.80;;;1.70;;
51527;SDS011;37612;51.768;21.590;2023-08-24T16:20:13;2.30;;;1.30;;
51527;SDS011;37612;51.768;21.590;2023-08-24T16:24:15;2.80;;;1.30;;
51527;SDS011;37612;51.768;21.590;2023-08-24T16:28:17;7.90;;;2.00;;
51527;SDS011;37612;51.768;21.590;2023-08-24T16:32:19;4.70;;;1.20;;
51527;SDS011;37612;51.768;21.590;2023-08-24T16:36:22;3.10;;;1.50;;
51527;SDS011;37612;51.768;21.590;2023-08-24T16:40:24;3.40;;;1.60;;
51527;SDS011;37612;51.768;21.590;2023-08-24T16:44:26;2.10;;;1.60;;
51527;SDS011;37612;51.768;21.590;2023-08-24T16:48:27;8.70;;;1.60;;
51527;SDS011;37612;51.768;21.590;2023-08-24T16:52:29;7.20;;;1.70;;
51527;SDS011;37612;51.768;21.590;2023-08-24T16:56:31;13.00;;;2.20;;
51527;SDS011;37612;51.768;21.590;2023-08-24T17:00:33;4.00;;;2.00;;
51527;SDS011;37612;51.768;21.590;2023-08-24T17:04:35;8.70;;;2.40;;
51527;SDS011;37612;51.768;21.590;2023-08-24T17:08:37;7.20;;;1.80;;
51527;SDS011;37612;51.768;21.590;2023-08-24T17:12:39;4.70;;;2.00;;
51527;SDS011;37612;51.768;21.590;2023-08-24T17:16:41;5.30;;;2.40;;
51527;SDS011;37612;51.768;21.590;2023-08-24T17:20:43;3.80;;;2.30;;
51527;SDS011;37612;51.768;21.590;2023-08-24T17:24:45;11.90;;;3.40;;
51527;SDS011;37612;51.768;21.590;2023-08-24T17:28:47;10.80;;;6.30;;
51527;SDS011;37612;51.768;21.590;2023-08-24T17:32:49;27.80;;;13.40;;
51527;SDS011;37612;51.768;21.590;2023-08-24T17:36:51;46.30;;;26.80;;
51527;SDS011;37612;51.768;21.590;2023-08-24T17:41:03;28.80;;;13.60;;
51527;SDS011;37612;51.768;21.590;2023-08-24T17:45:06;32.80;;;19.80;;
51527;SDS011;37612;51.768;21.590;2023-08-24T17:49:10;26.50;;;14.00;;
51527;SDS011;37612;51.768;21.590;2023-08-24T17:53:11;18.60;;;12.40;;
51527;SDS011;37612;51.768;21.590;2023-08-24T18:01:15;20.80;;;12.30;;
51527;SDS011;37612;51.768;21.590;2023-08-24T18:05:25;11.20;;;6.60;;
51527;SDS011;37612;51.768;21.590;2023-08-24T18:09:26;8.40;;;6.40;;
51527;SDS011;37612;51.768;21.590;2023-08-24T18:17:30;7.20;;;4.80;;
51527;SDS011;37612;51.768;21.590;2023-08-24T18:21:32;9.20;;;5.40;;
51527;SDS011;37612;51.768;21.590;2023-08-24T18:29:36;8.90;;;5.10;;
51527;SDS011;37612;51.768;21.590;2023-08-24T18:33:38;9.50;;;6.00;;
51527;SDS011;37612;51.768;21.590;2023-08-24T18:41:42;7.70;;;4.10;;
51527;SDS011;37612;51.768;21.590;2023-08-24T18:45:44;4.80;;;3.80;;
51527;SDS011;37612;51.768;21.590;2023-08-24T18:49:48;5.70;;;4.70;;
51527;SDS011;37612;51.768;21.590;2023-08-24T19:01:55;7.70;;;4.40;;
51527;SDS011;37612;51.768;21.590;2023-08-24T19:05:57;8.60;;;4.20;;
51527;SDS011;37612;51.768;21.590;2023-08-24T19:09:58;7.40;;;4.00;;
51527;SDS011;37612;51.768;21.590;2023-08-24T19:14:00;5.50;;;3.80;;
51527;SDS011;37612;51.768;21.590;2023-08-24T19:18:02;7.50;;;4.10;;
51527;SDS011;37612;51.768;21.590;2023-08-24T19:22:04;6.50;;;3.90;;
51527;SDS011;37612;51.768;21.590;2023-08-24T19:26:07;6.50;;;4.40;;
51527;SDS011;37612;51.768;21.590;2023-08-24T19:30:49;7.00;;;5.30;;
51527;SDS011;37612;51.768;21.590;2023-08-24T19:34:51;9.60;;;5.60;;
51527;SDS011;37612;51.768;21.590;2023-08-24T19:38:53;9.50;;;4.90;;
51527;SDS011;37612;51.768;21.590;2023-08-24T19:42:55;15.10;;;8.70;;
51527;SDS011;37612;51.768;21.590;2023-08-24T19:46:57;11.00;;;6.00;;
51527;SDS011;37612;51.768;21.590;2023-08-24T19:51:00;6.10;;;4.00;;
51527;SDS011;37612;51.768;21.590;2023-08-24T19:55:05;7.00;;;4.40;;
51527;SDS011;37612;51.768;21.590;2023-08-24T19:59:07;8.90;;;4.50;;
51527;SDS011;37612;51.768;21.590;2023-08-24T20:03:10;12.50;;;5.00;;
51527;SDS011;37612;51.768;21.590;2023-08-24T20:07:13;5.50;;;3.90;;
51527;SDS011;37612;51.768;21.590;2023-08-24T20:11:14;8.80;;;4.00;;
51527;SDS011;37612;51.768;21.590;2023-08-24T20:15:17;8.00;;;4.50;;
51527;SDS011;37612;51.768;21.590;2023-08-24T20:19:19;8.00;;;4.50;;
51527;SDS011;37612;51.768;21.590;2023-08-24T20:23:24;6.00;;;4.10;;
51527;SDS011;37612;51.768;21.590;2023-08-24T20:27:26;6.90;;;4.90;;
51527;SDS011;37612;51.768;21.590;2023-08-24T20:31:28;7.40;;;4.30;;
51527;SDS011;37612;51.768;21.590;2023-08-24T20:35:30;8.10;;;4.60;;
51527;SDS011;37612;51.768;21.590;2023-08-24T20:39:32;6.70;;;4.50;;
51527;SDS011;37612;51.768;21.590;2023-08-24T20:43:34;7.40;;;4.30;;
51527;SDS011;37612;51.768;21.590;2023-08-24T20:47:37;6.20;;;4.10;;
51527;SDS011;37612;51.768;21.590;2023-08-24T20:51:39;10.30;;;5.00;;
51527;SDS011;37612;51.768;21.590;2023-08-24T20:55:43;8.40;;;4.90;;
51527;SDS011;37612;51.768;21.590;2023-08-24T20:59:50;6.00;;;3.90;;
51527;SDS011;37612;51.768;21.590;2023-08-24T21:03:53;6.80;;;3.90;;
51527;SDS011;37612;51.768;21.590;2023-08-24T21:07:55;7.30;;;5.70;;
51527;SDS011;37612;51.768;21.590;2023-08-24T21:11:57;5.60;;;4.30;;
51527;SDS011;37612;51.768;21.590;2023-08-24T21:16:24;7.20;;;4.50;;
51527;SDS011;37612;51.768;21.590;2023-08-24T21:20:34;6.40;;;4.50;;
51527;SDS011;37612;51.768;21.590;2023-08-24T21:24:57;5.30;;;4.20;;
51527;SDS011;37612;51.768;21.590;2023-08-24T21:30:03;8.60;;;4.30;;
51527;SDS011;37612;51.768;21.590;2023-08-24T21:34:29;9.10;;;4.60;;
51527;SDS011;37612;51.768;21.590;2023-08-24T21:38:30;7.90;;;5.20;;
51527;SDS011;37612;51.768;21.590;2023-08-24T21:42:32;8.80;;;4.70;;
51527;SDS011;37612;51.768;21.590;2023-08-24T21:46:34;6.10;;;4.20;;
51527;SDS011;37612;51.768;21.590;2023-08-24T21:50:36;10.50;;;5.50;;
51527;SDS011;37612;51.768;21.590;2023-08-24T21:54:40;8.70;;;5.80;;
51527;SDS011;37612;51.768;21.590;2023-08-24T21:58:42;9.90;;;5.80;;
51527;SDS011;37612;51.768;21.590;2023-08-24T22:02:43;8.50;;;6.30;;
51527;SDS011;37612;51.768;21.590;2023-08-24T22:06:45;8.90;;;5.80;;
51527;SDS011;37612;51.768;21.590;2023-08-24T22:10:47;9.40;;;6.70;;
51527;SDS011;37612;51.768;21.590;2023-08-24T22:14:49;8.90;;;6.00;;
51527;SDS011;37612;51.768;21.590;2023-08-24T22:18:52;9.40;;;6.20;;
51527;SDS011;37612;51.768;21.590;2023-08-24T22:22:53;8.60;;;5.80;;
51527;SDS011;37612;51.768;21.590;2023-08-24T22:26:55;9.30;;;6.10;;
51527;SDS011;37612;51.768;21.590;2023-08-24T22:30:57;8.30;;;5.30;;
51527;SDS011;37612;51.768;21.590;2023-08-24T22:34:59;9.90;;;6.30;;
51527;SDS011;37612;51.768;21.590;2023-08-24T22:39:01;8.00;;;6.30;;
51527;SDS011;37612;51.768;21.590;2023-08-24T22:43:04;13.30;;;7.30;;
51527;SDS011;37612;51.768;21.590;2023-08-24T22:47:06;8.60;;;6.60;;
51527;SDS011;37612;51.768;21.590;2023-08-24T22:51:09;13.10;;;6.20;;
51527;SDS011;37612;51.768;21.590;2023-08-24T22:55:10;5.90;;;5.30;;
51527;SDS011;37612;51.768;21.590;2023-08-24T22:59:15;7.20;;;5.40;;
51527;SDS011;37612;51.768;21.590;2023-08-24T23:03:17;7.40;;;5.70;;
51527;SDS011;37612;51.768;21.590;2023-08-24T23:07:19;7.80;;;6.10;;
51527;SDS011;37612;51.768;21.590;2023-08-24T23:11:21;6.20;;;5.10;;
51527;SDS011;37612;51.768;21.590;2023-08-24T23:15:23;7.10;;;5.50;;
51527;SDS011;37612;51.768;21.590;2023-08-24T23:19:26;10.00;;;5.40;;
51527;SDS011;37612;51.768;21.590;2023-08-24T23:23:27;11.50;;;6.50;;
51527;SDS011;37612;51.768;21.590;2023-08-24T23:27:29;8.60;;;5.90;;
51527;SDS011;37612;51.768;21.590;2023-08-24T23:31:31;7.80;;;6.50;;
51527;SDS011;37612;51.768;21.590;2023-08-24T23:35:33;7.70;;;6.30;;
51527;SDS011;37612;51.768;21.590;2023-08-24T23:43:37;9.70;;;6.10;;
51527;SDS011;37612;51.768;21.590;2023-08-24T23:47:39;9.30;;;6.00;;
51527;SDS011;37612;51.768;21.590;2023-08-24T23:51:41;10.20;;;6.20;;
51527;SDS011;37612;51.768;21.590;2023-08-24T23:55:43;7.50;;;5.90;;
51527;SDS011;37612;51.768;21.590;2023-08-24T23:59:45;6.60;;;5.70;;
